Terminal Aerodrome Forecast
Issued by NWS Bismarck, ND

Home | Current Version | Previous Version | Text Only | Print | Product List | Glossary On
Versions: 1 2 3 4 5 6 7 8 9 10 11 12 13 14 15 16 17
000
FTUS43 KBIS 051130
TAFISN
TAF
KISN 051130Z 0512/0612 03005KT P6SM VCSH SCT060 SCT080 BKN100
      TEMPO 0512/0515 -SHRA BKN060 BKN080 OVC100
     FM051500 21008KT P6SM FEW025 SCT100
     FM051800 26007KT P6SM SCT100
     FM060300 09005KT P6SM SCT050 SCT080
     FM060800 VRB05KT P6SM VCTS SCT050CB BKN080 OVC150=

USA.gov is the U.S. government's official web portal to all federal, state and local government web resources and services.